Time;durP1;ratioP1;P1;durP2;ratioP2;P2;SDS_P1;SDS_P2;PMS_P1;PMS_P2;Temp;Humidity;BMP_temperature;BMP_pressure;BME280_temperature;BME280_humidity;BME280_pressure;Samples;Min_cycle;Max_cycle;Signal;HPM_P1;HPM_P2
2022/01/26 00:00:07;;;;;;;7.63;4.22;;;;;;;;;;4935422;28;20064;-69
2022/01/26 00:08:01;;;;;;;6.35;3.45;;;;;;;;;;4929502;28;20539;-67
2022/01/26 00:10:26;;;;;;;11.65;4.38;;;;;;;;;;4928069;28;20461;-67
2022/01/26 00:12:52;;;;;;;8.95;4.78;;;;;;;;;;4930487;28;20321;-68
2022/01/26 00:15:18;;;;;;;10.35;4.15;;;;;;;;;;4931700;28;20465;-68
2022/01/26 00:17:43;;;;;;;7.25;3.67;;;;;;;;;;4933370;28;20462;-67
2022/01/26 00:25:34;;;;;;;7.30;3.70;;;;;;;;;;4933609;28;20310;-67
2022/01/26 00:38:42;;;;;;;5.95;3.60;;;;;;;;;;4939769;28;20385;-69
2022/01/26 00:41:12;;;;;;;9.30;4.10;;;;;;;;;;4946458;28;20314;-67
2022/01/26 00:43:47;;;;;;;9.45;3.92;;;;;;;;;;4948420;28;20416;-69
2022/01/26 00:46:12;;;;;;;8.35;4.15;;;;;;;;;;4932701;28;20030;-69
2022/01/26 00:48:38;;;;;;;11.35;3.92;;;;;;;;;;4933636;28;20436;-68
2022/01/26 00:51:06;;;;;;;8.63;3.60;;;;;;;;;;4947737;28;20425;-67
2022/01/26 00:53:36;;;;;;;9.68;3.78;;;;;;;;;;4947422;28;20372;-67
2022/01/26 00:56:03;;;;;;;6.80;3.80;;;;;;;;;;4932975;28;20428;-68
2022/01/26 00:58:29;;;;;;;8.48;3.55;;;;;;;;;;4932851;28;20476;-69
2022/01/26 01:00:55;;;;;;;7.05;3.20;;;;;;;;;;4936014;28;20422;-69
2022/01/26 01:03:21;;;;;;;6.43;3.33;;;;;;;;;;4939008;28;20441;-67
2022/01/26 01:05:59;;;;;;;7.32;3.33;;;;;;;;;;4932863;28;20077;-68
2022/01/26 01:08:25;;;;;;;6.53;3.60;;;;;;;;;;4944915;28;20124;-67
2022/01/26 01:10:52;;;;;;;8.27;3.80;;;;;;;;;;4934158;28;20038;-68
2022/01/26 01:13:21;;;;;;;6.13;2.95;;;;;;;;;;4934740;28;20053;-68
2022/01/26 01:15:47;;;;;;;6.43;3.53;;;;;;;;;;4951549;28;20408;-69
2022/01/26 01:18:24;;;;;;;10.02;3.88;;;;;;;;;;4951944;28;20433;-68
2022/01/26 01:31:45;;;;;;;7.90;3.20;;;;;;;;;;4952931;28;20372;-68
2022/01/26 01:34:12;;;;;;;8.23;3.88;;;;;;;;;;4953069;28;20372;-68
2022/01/26 01:36:41;;;;;;;6.70;3.40;;;;;;;;;;4966284;28;20409;-70
2022/01/26 01:39:09;;;;;;;6.20;3.55;;;;;;;;;;4951776;28;20522;-69
2022/01/26 01:41:36;;;;;;;6.53;3.97;;;;;;;;;;4951260;28;20509;-68
2022/01/26 01:44:03;;;;;;;4.82;3.13;;;;;;;;;;4966525;28;20510;-67
2022/01/26 01:46:29;;;;;;;9.65;3.55;;;;;;;;;;4934228;28;20018;-68
2022/01/26 01:48:54;;;;;;;8.45;3.47;;;;;;;;;;4949607;28;20425;-68
2022/01/26 01:51:26;;;;;;;7.95;3.00;;;;;;;;;;4951078;28;20042;-68
2022/01/26 01:53:51;;;;;;;6.75;3.53;;;;;;;;;;4951201;28;20461;-67
2022/01/26 01:56:18;;;;;;;9.52;3.30;;;;;;;;;;4933221;28;20429;-68
2022/01/26 01:58:44;;;;;;;6.38;3.00;;;;;;;;;;4951247;28;20324;-68
2022/01/26 02:01:09;;;;;;;6.25;3.03;;;;;;;;;;4950650;28;20018;-68
2022/01/26 02:03:34;;;;;;;5.68;3.03;;;;;;;;;;4593258;28;10000995;-67
2022/01/26 02:06:00;;;;;;;4.20;2.60;;;;;;;;;;4933496;28;20507;-68
2022/01/26 02:08:26;;;;;;;4.18;2.80;;;;;;;;;;4965226;28;20472;-68
2022/01/26 02:10:51;;;;;;;6.45;3.47;;;;;;;;;;4950941;28;20470;-68
2022/01/26 02:13:28;;;;;;;5.28;2.78;;;;;;;;;;4951476;28;20407;-68
2022/01/26 02:16:03;;;;;;;9.43;3.67;;;;;;;;;;4934698;28;20459;-67
2022/01/26 02:54:15;;;;;;;4.13;2.10;;;;;;;;;;4964577;28;20330;-68
2022/01/26 02:56:57;;;;;;;4.60;2.53;;;;;;;;;;4949914;28;20550;-68
2022/01/26 02:59:49;;;;;;;6.22;3.40;;;;;;;;;;4949995;28;20431;-68
2022/01/26 03:02:22;;;;;;;6.15;2.72;;;;;;;;;;4934932;28;20141;-68
2022/01/26 03:04:51;;;;;;;5.45;2.38;;;;;;;;;;4934217;28;20437;-68
2022/01/26 03:09:47;;;;;;;4.70;2.70;;;;;;;;;;4950604;28;20542;-68
2022/01/26 03:12:20;;;;;;;5.38;3.00;;;;;;;;;;4932724;28;20118;-68
2022/01/26 03:14:54;;;;;;;6.05;2.67;;;;;;;;;;4950026;28;20059;-68
2022/01/26 03:17:42;;;;;;;6.88;3.28;;;;;;;;;;4951313;28;20168;-69
2022/01/26 03:20:12;;;;;;;7.32;2.58;;;;;;;;;;4949599;28;20341;-69
2022/01/26 03:35:53;;;;;;;3.47;2.33;;;;;;;;;;4950155;28;20352;-68
2022/01/26 03:38:30;;;;;;;;;;;;;;;;;;4964194;28;20088;-68
2022/01/26 03:41:15;;;;;;;5.55;2.55;;;;;;;;;;4949279;28;20342;-68
2022/01/26 03:43:40;;;;;;;4.10;2.47;;;;;;;;;;4934667;28;20328;-68
2022/01/26 03:46:05;;;;;;;5.47;2.47;;;;;;;;;;4932192;28;20345;-67
2022/01/26 03:48:31;;;;;;;5.25;2.97;;;;;;;;;;4950709;28;20415;-68
2022/01/26 03:50:56;;;;;;;4.18;2.25;;;;;;;;;;4954176;28;20447;-67
2022/01/26 03:53:21;;;;;;;5.03;2.38;;;;;;;;;;4953569;28;20510;-68
2022/01/26 03:55:47;;;;;;;4.50;2.33;;;;;;;;;;4936505;28;20511;-68
2022/01/26 03:58:12;;;;;;;3.83;2.40;;;;;;;;;;4952953;28;20048;-68
2022/01/26 04:00:37;;;;;;;2.83;1.98;;;;;;;;;;4936117;28;20462;-68
2022/01/26 04:03:03;;;;;;;5.43;2.50;;;;;;;;;;4952455;28;20340;-67
2022/01/26 04:05:29;;;;;;;4.85;2.83;;;;;;;;;;4953567;28;20415;-68
2022/01/26 04:07:59;;;;;;;5.22;2.38;;;;;;;;;;4931865;28;20480;-67
2022/01/26 04:11:19;;;;;;;5.20;2.80;;;;;;;;;;4933748;28;20445;-68
2022/01/26 04:13:13;;;;;;;4.47;2.65;;;;;;;;;;4937783;28;20057;-67
2022/01/26 04:15:39;;;;;;;5.00;2.70;;;;;;;;;;4934746;28;20030;-68
2022/01/26 04:18:08;;;;;;;6.63;2.72;;;;;;;;;;4932240;28;20453;-67
2022/01/26 04:20:39;;;;;;;4.68;2.28;;;;;;;;;;4933894;28;20460;-68
2022/01/26 04:23:14;;;;;;;6.45;2.88;;;;;;;;;;4932062;28;20517;-68
2022/01/26 04:25:41;;;;;;;4.85;2.70;;;;;;;;;;4933307;28;20357;-67
2022/01/26 04:28:11;;;;;;;6.93;2.88;;;;;;;;;;4934662;28;20417;-69
2022/01/26 04:30:37;;;;;;;4.72;2.80;;;;;;;;;;4933194;28;20349;-67
2022/01/26 04:33:04;;;;;;;6.57;2.50;;;;;;;;;;4933593;28;20389;-67
2022/01/26 04:35:30;;;;;;;4.65;2.53;;;;;;;;;;4932122;28;20433;-68
2022/01/26 04:38:14;;;;;;;3.88;2.40;;;;;;;;;;4933174;28;20456;-69
2022/01/26 04:40:56;;;;;;;5.30;2.72;;;;;;;;;;4933315;28;20121;-69
2022/01/26 04:43:26;;;;;;;5.25;2.50;;;;;;;;;;4931914;28;20049;-68
2022/01/26 04:45:52;;;;;;;4.80;2.55;;;;;;;;;;4933266;28;20433;-68
2022/01/26 04:48:18;;;;;;;4.30;2.58;;;;;;;;;;4931386;28;20442;-68
2022/01/26 04:50:44;;;;;;;4.43;2.47;;;;;;;;;;4933651;28;20336;-69
2022/01/26 04:53:09;;;;;;;5.68;2.70;;;;;;;;;;4933086;28;20302;-68
2022/01/26 04:55:35;;;;;;;4.10;2.85;;;;;;;;;;4933056;28;20321;-69
2022/01/26 04:58:00;;;;;;;4.30;2.70;;;;;;;;;;4932660;28;20430;-68
2022/01/26 05:00:26;;;;;;;9.43;2.30;;;;;;;;;;4932621;28;20322;-68
2022/01/26 05:02:51;;;;;;;4.55;2.50;;;;;;;;;;4933421;28;20425;-68
2022/01/26 05:05:16;;;;;;;5.00;2.38;;;;;;;;;;4932037;28;20381;-68
2022/01/26 05:07:42;;;;;;;6.75;2.60;;;;;;;;;;4930693;28;20441;-67
2022/01/26 05:10:07;;;;;;;4.60;2.38;;;;;;;;;;4932660;28;20457;-67
2022/01/26 05:12:34;;;;;;;4.90;2.88;;;;;;;;;;4932301;28;20464;-68
2022/01/26 05:15:00;;;;;;;4.32;2.35;;;;;;;;;;4932668;28;20342;-67
2022/01/26 05:17:25;;;;;;;4.15;2.53;;;;;;;;;;4932300;28;20345;-67
2022/01/26 05:19:55;;;;;;;7.32;2.65;;;;;;;;;;4933560;28;20248;-68
2022/01/26 05:22:20;;;;;;;4.07;2.83;;;;;;;;;;4932217;28;20345;-68
2022/01/26 05:24:47;;;;;;;3.97;2.83;;;;;;;;;;4931032;28;20337;-68
2022/01/26 05:27:13;;;;;;;3.97;1.98;;;;;;;;;;4931565;28;20417;-69
2022/01/26 05:29:38;;;;;;;4.95;2.25;;;;;;;;;;4932505;28;20520;-68
2022/01/26 05:32:04;;;;;;;4.30;2.55;;;;;;;;;;4932499;28;20471;-68
2022/01/26 05:34:29;;;;;;;5.00;2.78;;;;;;;;;;4932394;28;20349;-67
2022/01/26 05:36:54;;;;;;;4.60;2.40;;;;;;;;;;4932231;28;20424;-68
2022/01/26 05:39:20;;;;;;;4.32;2.00;;;;;;;;;;4930918;28;20400;-69
2022/01/26 05:41:45;;;;;;;4.78;2.20;;;;;;;;;;4932026;28;20417;-68
2022/01/26 05:44:10;;;;;;;5.38;2.47;;;;;;;;;;4930999;28;20468;-69
2022/01/26 05:46:41;;;;;;;4.32;2.65;;;;;;;;;;4932806;28;20054;-68
2022/01/26 05:49:06;;;;;;;2.95;2.15;;;;;;;;;;4930196;28;20543;-68
2022/01/26 05:51:33;;;;;;;4.53;2.30;;;;;;;;;;4931795;28;20342;-68
2022/01/26 05:53:58;;;;;;;3.95;2.45;;;;;;;;;;4932682;28;20520;-67
2022/01/26 05:56:24;;;;;;;5.18;3.25;;;;;;;;;;4931986;28;20440;-68
2022/01/26 05:58:49;;;;;;;4.15;2.03;;;;;;;;;;4930596;28;20415;-68
2022/01/26 06:01:15;;;;;;;6.78;3.17;;;;;;;;;;4931562;28;20384;-67
2022/01/26 06:03:40;;;;;;;8.27;2.75;;;;;;;;;;4932794;28;20441;-68
2022/01/26 06:06:06;;;;;;;6.25;2.13;;;;;;;;;;4929646;28;20476;-68
2022/01/26 06:08:31;;;;;;;5.35;3.03;;;;;;;;;;4944348;28;20421;-68
2022/01/26 06:10:58;;;;;;;4.50;2.63;;;;;;;;;;4965931;28;20364;-68
2022/01/26 06:13:23;;;;;;;5.35;2.53;;;;;;;;;;4950978;28;20313;-67
2022/01/26 06:15:49;;;;;;;5.15;2.60;;;;;;;;;;4965880;28;20340;-68
2022/01/26 06:18:14;;;;;;;4.00;2.35;;;;;;;;;;4950831;28;20492;-68
2022/01/26 06:20:40;;;;;;;5.90;2.28;;;;;;;;;;4933243;28;20476;-68
2022/01/26 06:23:05;;;;;;;5.03;2.47;;;;;;;;;;4951212;28;20447;-68
2022/01/26 06:25:31;;;;;;;6.82;3.38;;;;;;;;;;4950938;28;20388;-68
2022/01/26 06:27:59;;;;;;;5.85;2.38;;;;;;;;;;4950382;28;20499;-67
2022/01/26 06:30:25;;;;;;;5.47;3.10;;;;;;;;;;4951854;28;20515;-68
2022/01/26 06:32:50;;;;;;;5.10;2.45;;;;;;;;;;4933091;28;20429;-68
2022/01/26 06:35:16;;;;;;;5.57;2.83;;;;;;;;;;4949021;28;20052;-69
2022/01/26 06:37:41;;;;;;;5.53;2.75;;;;;;;;;;4933366;28;20445;-67
2022/01/26 06:40:07;;;;;;;5.47;2.95;;;;;;;;;;4933431;28;20088;-68
2022/01/26 06:42:40;;;;;;;4.03;2.50;;;;;;;;;;4950744;28;20412;-68
2022/01/26 06:45:14;;;;;;;3.08;2.20;;;;;;;;;;4951503;28;20501;-68
2022/01/26 06:48:14;;;;;;;5.38;2.35;;;;;;;;;;4934692;28;20313;-68
2022/01/26 06:50:40;;;;;;;4.35;2.50;;;;;;;;;;4937312;28;20464;-69
2022/01/26 06:53:05;;;;;;;3.83;2.53;;;;;;;;;;4932542;28;20571;-68
2022/01/26 06:55:31;;;;;;;4.47;2.33;;;;;;;;;;4951653;28;20026;-70
2022/01/26 06:57:56;;;;;;;3.95;2.30;;;;;;;;;;4951050;28;20338;-68
2022/01/26 07:00:22;;;;;;;4.97;2.75;;;;;;;;;;4932529;28;20348;-68
2022/01/26 07:02:47;;;;;;;4.05;2.55;;;;;;;;;;4932776;28;20053;-68
2022/01/26 07:05:12;;;;;;;5.57;2.97;;;;;;;;;;4950866;28;20097;-67
2022/01/26 07:07:38;;;;;;;3.63;2.30;;;;;;;;;;4944695;28;20366;-68
2022/01/26 07:10:05;;;;;;;10.02;3.47;;;;;;;;;;4930709;28;20436;-69
2022/01/26 07:12:30;;;;;;;4.38;2.97;;;;;;;;;;4945904;28;20333;-68
2022/01/26 07:23:05;;;;;;;3.85;2.65;;;;;;;;;;4930218;28;20438;-69
2022/01/26 07:25:31;;;;;;;5.10;3.22;;;;;;;;;;4913054;28;20419;-68
2022/01/26 07:27:57;;;;;;;4.75;2.65;;;;;;;;;;4945062;28;20387;-68
2022/01/26 07:30:22;;;;;;;6.53;2.38;;;;;;;;;;4929710;28;20046;-68
2022/01/26 07:32:48;;;;;;;5.00;3.05;;;;;;;;;;4930936;28;20049;-68
2022/01/26 07:35:13;;;;;;;4.63;2.75;;;;;;;;;;4929146;28;20447;-69
2022/01/26 07:37:39;;;;;;;5.20;2.70;;;;;;;;;;4930186;28;20457;-68
2022/01/26 07:40:06;;;;;;;5.28;2.53;;;;;;;;;;4930713;28;20461;-68
2022/01/26 07:42:32;;;;;;;4.70;2.83;;;;;;;;;;4930374;28;20460;-67
2022/01/26 07:44:58;;;;;;;6.10;2.97;;;;;;;;;;4945664;28;20060;-68
2022/01/26 07:47:23;;;;;;;5.90;2.92;;;;;;;;;;4931106;28;20492;-68
2022/01/26 07:49:52;;;;;;;5.30;3.10;;;;;;;;;;4931145;28;20480;-68
2022/01/26 07:52:18;;;;;;;4.03;2.45;;;;;;;;;;4928395;28;20054;-68
2022/01/26 07:54:45;;;;;;;3.72;2.05;;;;;;;;;;4930448;28;20432;-68
2022/01/26 07:57:11;;;;;;;5.15;3.20;;;;;;;;;;4930321;28;20460;-68
2022/01/26 07:59:36;;;;;;;3.97;2.72;;;;;;;;;;4930929;28;20049;-69
2022/01/26 08:02:02;;;;;;;6.28;2.90;;;;;;;;;;4928642;28;20437;-68
2022/01/26 08:04:27;;;;;;;6.72;3.55;;;;;;;;;;4945137;28;20341;-68
2022/01/26 08:06:52;;;;;;;5.53;2.72;;;;;;;;;;4930222;28;20507;-68
2022/01/26 08:09:18;;;;;;;4.95;2.30;;;;;;;;;;4928319;28;20354;-70
2022/01/26 08:11:43;;;;;;;6.10;2.55;;;;;;;;;;4928573;28;20373;-68
2022/01/26 08:14:08;;;;;;;5.70;2.97;;;;;;;;;;4928752;28;20423;-69
2022/01/26 08:16:34;;;;;;;3.55;2.60;;;;;;;;;;4929810;28;20038;-68
2022/01/26 08:18:59;;;;;;;4.63;2.55;;;;;;;;;;4928976;28;20354;-68
2022/01/26 08:21:25;;;;;;;6.22;3.30;;;;;;;;;;4930761;28;20433;-68
2022/01/26 08:23:50;;;;;;;2.67;1.90;;;;;;;;;;4928151;28;20342;-68
2022/01/26 08:26:21;;;;;;;6.30;2.92;;;;;;;;;;4929147;28;20326;-68
2022/01/26 08:28:52;;;;;;;7.85;2.47;;;;;;;;;;4943812;28;20050;-68
2022/01/26 08:31:17;;;;;;;4.78;2.45;;;;;;;;;;4929611;28;20425;-69
2022/01/26 08:33:42;;;;;;;3.60;2.20;;;;;;;;;;4928793;28;20343;-68
2022/01/26 08:36:08;;;;;;;5.55;2.63;;;;;;;;;;4931863;28;20415;-69
2022/01/26 08:38:33;;;;;;;4.15;2.50;;;;;;;;;;4932569;28;20433;-68
2022/01/26 08:40:58;;;;;;;5.95;2.47;;;;;;;;;;4934022;28;20318;-72
2022/01/26 08:43:23;;;;;;;3.83;2.03;;;;;;;;;;4934524;28;20026;-68
2022/01/26 08:45:49;;;;;;;3.28;2.03;;;;;;;;;;4934367;28;20428;-69
2022/01/26 08:48:14;;;;;;;5.30;2.45;;;;;;;;;;4933040;28;20532;-70
2022/01/26 08:50:40;;;;;;;5.47;2.53;;;;;;;;;;4932924;28;20461;-68
2022/01/26 08:53:05;;;;;;;4.32;2.42;;;;;;;;;;4931533;28;20088;-68
2022/01/26 08:55:33;;;;;;;3.25;1.88;;;;;;;;;;4933116;28;20457;-68
2022/01/26 08:57:58;;;;;;;4.63;2.20;;;;;;;;;;4931448;28;20512;-69
2022/01/26 09:00:24;;;;;;;5.35;2.70;;;;;;;;;;4947553;28;20446;-69
2022/01/26 09:02:51;;;;;;;3.72;2.47;;;;;;;;;;4932858;28;20189;-69
2022/01/26 09:05:16;;;;;;;7.15;3.47;;;;;;;;;;4931448;28;20444;-69
2022/01/26 09:07:44;;;;;;;4.47;2.80;;;;;;;;;;4931185;28;20454;-68
2022/01/26 09:10:10;;;;;;;6.32;3.05;;;;;;;;;;4932964;28;20307;-68
2022/01/26 09:12:38;;;;;;;6.70;3.22;;;;;;;;;;4931157;28;20372;-68
2022/01/26 09:15:06;;;;;;;4.50;2.67;;;;;;;;;;4931687;28;20441;-68
2022/01/26 09:17:33;;;;;;;5.97;3.45;;;;;;;;;;4931062;28;20117;-69
2022/01/26 09:20:00;;;;;;;6.20;3.00;;;;;;;;;;4931224;28;20344;-68
2022/01/26 09:22:26;;;;;;;6.10;2.85;;;;;;;;;;4947160;28;20523;-68
2022/01/26 09:24:52;;;;;;;9.02;3.17;;;;;;;;;;4946937;28;20481;-69
2022/01/26 09:27:17;;;;;;;4.75;2.65;;;;;;;;;;4947381;28;20463;-68
2022/01/26 09:29:44;;;;;;;5.25;2.75;;;;;;;;;;4931835;28;20034;-68
2022/01/26 09:32:11;;;;;;;6.80;2.97;;;;;;;;;;4932253;28;20396;-69
2022/01/26 09:34:37;;;;;;;6.13;3.20;;;;;;;;;;4931368;28;20076;-68
2022/01/26 09:37:04;;;;;;;5.85;2.80;;;;;;;;;;4933247;28;20468;-68
2022/01/26 09:39:29;;;;;;;4.53;2.38;;;;;;;;;;4930765;28;20030;-69
2022/01/26 09:41:54;;;;;;;6.75;3.10;;;;;;;;;;4931853;28;20468;-68
2022/01/26 09:44:21;;;;;;;4.18;2.58;;;;;;;;;;4931949;28;20346;-70
2022/01/26 09:46:47;;;;;;;6.43;3.67;;;;;;;;;;4931736;28;20504;-69
2022/01/26 09:49:17;;;;;;;7.60;3.40;;;;;;;;;;4930345;28;20437;-69
2022/01/26 09:51:44;;;;;;;5.80;3.08;;;;;;;;;;4930402;28;20345;-68
2022/01/26 09:54:16;;;;;;;3.47;2.40;;;;;;;;;;4932119;28;20030;-68
2022/01/26 09:56:43;;;;;;;8.00;3.40;;;;;;;;;;4930213;28;20096;-69
2022/01/26 09:59:09;;;;;;;7.25;4.43;;;;;;;;;;4931789;28;20465;-69
2022/01/26 10:01:45;;;;;;;6.45;3.20;;;;;;;;;;4946514;28;20491;-71
2022/01/26 10:04:28;;;;;;;6.22;3.35;;;;;;;;;;4930616;28;20330;-68
2022/01/26 10:09:54;;;;;;;9.20;3.20;;;;;;;;;;4910658;28;20405;-68
2022/01/26 10:18:21;;;;;;;7.40;3.70;;;;;;;;;;4911854;28;20349;-69
2022/01/26 10:20:57;;;;;;;8.70;4.35;;;;;;;;;;4908255;28;20575;-68
2022/01/26 10:23:28;;;;;;;5.68;3.20;;;;;;;;;;4926495;28;20397;-69
2022/01/26 10:26:00;;;;;;;5.18;3.88;;;;;;;;;;4926462;28;20121;-68
2022/01/26 10:28:26;;;;;;;5.65;2.92;;;;;;;;;;4912176;28;20476;-69
2022/01/26 10:30:51;;;;;;;9.80;4.60;;;;;;;;;;4912355;28;20381;-69
2022/01/26 10:33:17;;;;;;;6.60;3.33;;;;;;;;;;4911900;28;20484;-68
2022/01/26 10:35:43;;;;;;;6.32;3.30;;;;;;;;;;4910067;28;20023;-68
2022/01/26 10:38:08;;;;;;;6.47;3.35;;;;;;;;;;4912468;28;20453;-69
2022/01/26 10:40:37;;;;;;;9.75;3.92;;;;;;;;;;4910416;28;20322;-70
2022/01/26 10:43:10;;;;;;;6.78;3.97;;;;;;;;;;4910182;28;20374;-69
2022/01/26 10:46:04;;;;;;;9.57;4.05;;;;;;;;;;4912931;28;20019;-68
2022/01/26 10:48:54;;;;;;;7.65;3.67;;;;;;;;;;4926737;28;20416;-68
2022/01/26 10:51:39;;;;;;;8.85;4.25;;;;;;;;;;4911529;28;20484;-69
2022/01/26 10:54:19;;;;;;;11.60;3.47;;;;;;;;;;4911241;28;20079;-69
2022/01/26 10:56:44;;;;;;;;;;;;;;;;;;4911829;28;20349;-69
2022/01/26 10:59:09;;;;;;;8.52;4.03;;;;;;;;;;4909629;28;20284;-68
2022/01/26 11:01:35;;;;;;;6.30;3.40;;;;;;;;;;4911924;28;20058;-69
2022/01/26 11:04:00;;;;;;;6.88;4.15;;;;;;;;;;4912024;28;20426;-69
2022/01/26 11:06:28;;;;;;;6.72;4.20;;;;;;;;;;4909758;28;20397;-69
2022/01/26 11:08:58;;;;;;;8.85;4.55;;;;;;;;;;4923857;28;20536;-70
2022/01/26 11:11:24;;;;;;;7.93;4.80;;;;;;;;;;4929593;28;20389;-69
2022/01/26 11:13:49;;;;;;;7.07;3.90;;;;;;;;;;4928944;28;20361;-69
2022/01/26 11:16:16;;;;;;;9.13;4.38;;;;;;;;;;4931576;28;20092;-69
2022/01/26 11:18:50;;;;;;;10.68;4.63;;;;;;;;;;4930371;28;20048;-69
2022/01/26 11:21:29;;;;;;;7.57;3.08;;;;;;;;;;4929937;28;20496;-69
2022/01/26 11:24:18;;;;;;;8.90;4.53;;;;;;;;;;4931303;28;20482;-69
2022/01/26 11:26:45;;;;;;;8.50;4.15;;;;;;;;;;4928618;28;20052;-69
2022/01/26 11:29:24;;;;;;;9.32;5.00;;;;;;;;;;4944935;28;20429;-69
2022/01/26 11:32:06;;;;;;;8.18;3.65;;;;;;;;;;4928767;28;20330;-70
2022/01/26 11:34:33;;;;;;;9.10;4.50;;;;;;;;;;4930135;28;20030;-69
2022/01/26 11:36:59;;;;;;;5.53;3.03;;;;;;;;;;4928905;28;20030;-69
2022/01/26 11:42:30;;;;;;;9.10;4.50;;;;;;;;;;4930110;28;20361;-69
2022/01/26 11:45:09;;;;;;;8.88;4.13;;;;;;;;;;4929106;28;20400;-69
2022/01/26 11:47:37;;;;;;;9.27;4.43;;;;;;;;;;4930428;28;20088;-69
2022/01/26 11:50:07;;;;;;;7.93;3.72;;;;;;;;;;4931565;28;20531;-69
2022/01/26 11:52:38;;;;;;;7.10;3.97;;;;;;;;;;4929933;28;20437;-70
2022/01/26 11:55:09;;;;;;;5.90;3.33;;;;;;;;;;4928731;28;20528;-69
2022/01/26 11:57:47;;;;;;;6.25;3.45;;;;;;;;;;4945072;28;20516;-69
2022/01/26 12:00:19;;;;;;;9.30;3.83;;;;;;;;;;4928773;28;20365;-69
2022/01/26 12:05:16;;;;;;;8.73;4.38;;;;;;;;;;4928550;28;20023;-69
2022/01/26 12:07:50;;;;;;;;;;;;;;;;;;4934699;28;20469;-70
2022/01/26 12:10:26;;;;;;;5.75;3.53;;;;;;;;;;4949796;28;20220;-70
2022/01/26 12:13:21;;;;;;;6.03;3.20;;;;;;;;;;4953346;28;20421;-69
2022/01/26 12:15:54;;;;;;;8.13;3.08;;;;;;;;;;4950931;28;20449;-71
2022/01/26 12:18:34;;;;;;;6.68;4.05;;;;;;;;;;4936387;28;20436;-70
2022/01/26 12:35:18;;;;;;;7.55;4.35;;;;;;;;;;4937907;28;20448;-70
2022/01/26 12:37:59;;;;;;;6.68;3.78;;;;;;;;;;4952991;28;20100;-70
2022/01/26 12:43:37;;;;;;;7.30;3.17;;;;;;;;;;4952874;28;20475;-70
2022/01/26 12:46:09;;;;;;;6.88;3.78;;;;;;;;;;4952147;28;20356;-70
2022/01/26 12:48:38;;;;;;;6.93;3.97;;;;;;;;;;4953550;28;20388;-69
2022/01/26 12:51:03;;;;;;;8.20;4.88;;;;;;;;;;4966963;28;20022;-70
2022/01/26 12:53:32;;;;;;;7.65;4.18;;;;;;;;;;4952283;28;20467;-69
2022/01/26 12:56:00;;;;;;;8.43;3.75;;;;;;;;;;4967747;28;20030;-69
2022/01/26 12:58:30;;;;;;;8.27;4.70;;;;;;;;;;4934656;28;20348;-70
2022/01/26 13:01:05;;;;;;;9.60;3.83;;;;;;;;;;4934951;28;20486;-70
2022/01/26 13:03:33;;;;;;;7.10;3.80;;;;;;;;;;4934420;28;20575;-70
2022/01/26 13:06:09;;;;;;;9.35;4.68;;;;;;;;;;4934811;28;20052;-70
2022/01/26 13:08:46;;;;;;;9.23;4.45;;;;;;;;;;4931414;28;20419;-70
2022/01/26 13:11:12;;;;;;;4.95;3.42;;;;;;;;;;4931088;28;20441;-69
2022/01/26 13:13:37;;;;;;;10.75;4.43;;;;;;;;;;4947146;28;20344;-70
2022/01/26 13:16:18;;;;;;;5.55;3.60;;;;;;;;;;4932590;28;20441;-70
2022/01/26 13:19:13;;;;;;;8.05;4.40;;;;;;;;;;4947728;28;20479;-70
2022/01/26 13:22:12;;;;;;;9.52;4.15;;;;;;;;;;4944547;28;20105;-69
2022/01/26 13:25:01;;;;;;;6.53;3.42;;;;;;;;;;4932566;28;20299;-70
2022/01/26 13:30:23;;;;;;;7.25;4.50;;;;;;;;;;4932506;28;20559;-70
2022/01/26 13:34:08;;;;;;;10.50;4.32;;;;;;;;;;4932398;28;20038;-70
2022/01/26 13:35:57;;;;;;;9.52;4.40;;;;;;;;;;4934885;28;20470;-70
2022/01/26 13:40:58;;;;;;;8.90;4.05;;;;;;;;;;4930885;28;20345;-70
2022/01/26 13:51:39;;;;;;;6.63;3.58;;;;;;;;;;4931891;28;20357;-70
2022/01/26 13:54:41;;;;;;;7.85;3.92;;;;;;;;;;4948513;28;20413;-70
2022/01/26 13:59:44;;;;;;;8.82;4.60;;;;;;;;;;4932895;28;20449;-70
2022/01/26 14:02:09;;;;;;;8.25;4.68;;;;;;;;;;4931631;28;20354;-70
2022/01/26 14:04:34;;;;;;;13.02;5.05;;;;;;;;;;4932442;28;20080;-70
2022/01/26 14:07:00;;;;;;;10.07;4.43;;;;;;;;;;4930442;28;20409;-70
2022/01/26 14:09:25;;;;;;;11.57;5.18;;;;;;;;;;4949357;28;20478;-70
2022/01/26 14:11:51;;;;;;;6.95;4.20;;;;;;;;;;4933197;28;20448;-70
2022/01/26 14:14:24;;;;;;;9.07;5.05;;;;;;;;;;4951049;28;20433;-71
2022/01/26 14:17:00;;;;;;;11.52;4.45;;;;;;;;;;4934862;28;20049;-70
2022/01/26 14:19:32;;;;;;;8.75;4.97;;;;;;;;;;4935496;28;20421;-69
2022/01/26 14:22:31;;;;;;;7.20;4.30;;;;;;;;;;4950507;28;20092;-70
2022/01/26 14:25:39;;;;;;;9.18;4.60;;;;;;;;;;4950037;28;20587;-70
2022/01/26 14:27:45;;;;;;;12.48;5.32;;;;;;;;;;4943182;28;20376;-70
2022/01/26 14:33:01;;;;;;;9.13;4.28;;;;;;;;;;4949334;28;20548;-70
2022/01/26 14:50:53;;;;;;;12.85;5.72;;;;;;;;;;4968605;28;20440;-70
2022/01/26 14:52:10;;;;;;;12.70;5.78;;;;;;;;;;4969812;28;20361;-70
2022/01/26 14:54:49;;;;;;;9.73;5.18;;;;;;;;;;4954532;28;20433;-69
2022/01/26 15:35:24;;;;;;;12.57;6.03;;;;;;;;;;4970867;28;20506;-71
2022/01/26 15:43:49;;;;;;;17.10;6.70;;;;;;;;;;4969756;28;20372;-70
2022/01/26 16:05:17;;;;;;;15.93;7.20;;;;;;;;;;4958374;28;20467;-70
2022/01/26 16:16:33;;;;;;;20.67;8.60;;;;;;;;;;4957638;28;20329;-70
2022/01/26 16:21:43;;;;;;;18.25;7.88;;;;;;;;;;4973131;28;20388;-69
2022/01/26 16:27:35;;;;;;;15.50;6.63;;;;;;;;;;4972770;28;20543;-70
2022/01/26 16:38:04;;;;;;;14.93;7.93;;;;;;;;;;4950890;28;20337;-70
2022/01/26 18:39:34;;;;;;;11.27;5.40;;;;;;;;;;4930299;28;20109;-70
2022/01/26 18:50:05;;;;;;;13.82;6.25;;;;;;;;;;4930130;28;20460;-69
2022/01/26 18:52:32;;;;;;;14.95;5.53;;;;;;;;;;4930262;28;20504;-69
2022/01/26 18:54:57;;;;;;;7.72;5.18;;;;;;;;;;4930622;28;20409;-69
2022/01/26 18:57:22;;;;;;;10.85;4.97;;;;;;;;;;4929136;28;20417;-69
2022/01/26 18:59:48;;;;;;;11.88;4.93;;;;;;;;;;4930543;28;20401;-69
2022/01/26 19:02:13;;;;;;;9.57;4.65;;;;;;;;;;4930563;28;20579;-70
2022/01/26 19:04:46;;;;;;;11.73;5.13;;;;;;;;;;4930674;28;20373;-70
2022/01/26 19:07:11;;;;;;;7.28;4.85;;;;;;;;;;4928774;28;20342;-69
2022/01/26 19:09:43;;;;;;;10.15;5.53;;;;;;;;;;4968774;28;20369;-69
2022/01/26 19:12:12;;;;;;;9.18;4.68;;;;;;;;;;4968828;28;20433;-70
2022/01/26 19:14:41;;;;;;;8.85;4.97;;;;;;;;;;4952241;28;20364;-69
2022/01/26 19:17:16;;;;;;;12.15;5.05;;;;;;;;;;4969588;28;20380;-69
2022/01/26 19:19:54;;;;;;;11.13;4.18;;;;;;;;;;4968338;28;20088;-69
2022/01/26 19:22:43;;;;;;;11.27;5.93;;;;;;;;;;4937476;28;20360;-69
2022/01/26 19:27:48;;;;;;;9.05;4.80;;;;;;;;;;4969064;28;20476;-70
2022/01/26 19:31:08;;;;;;;9.63;4.88;;;;;;;;;;4969211;28;20371;-69
2022/01/26 19:51:57;;;;;;;8.68;4.00;;;;;;;;;;4953675;28;20456;-70
2022/01/26 19:54:22;;;;;;;8.77;4.85;;;;;;;;;;4969268;28;20360;-69
2022/01/26 19:56:48;;;;;;;8.93;4.20;;;;;;;;;;4950860;28;20033;-69
2022/01/26 19:59:13;;;;;;;11.32;4.88;;;;;;;;;;4935422;28;20436;-70
2022/01/26 20:01:38;;;;;;;10.60;4.88;;;;;;;;;;4968934;28;20499;-70
2022/01/26 20:04:04;;;;;;;6.97;3.83;;;;;;;;;;4969337;28;20368;-69
2022/01/26 20:06:29;;;;;;;8.32;4.63;;;;;;;;;;4968838;28;20436;-69
2022/01/26 20:09:05;;;;;;;8.80;4.20;;;;;;;;;;4968345;28;20467;-69
2022/01/26 20:11:44;;;;;;;9.65;3.55;;;;;;;;;;4970135;28;20352;-70
2022/01/26 20:14:10;;;;;;;13.30;4.70;;;;;;;;;;4969082;28;20322;-69
2022/01/26 20:16:36;;;;;;;9.15;4.13;;;;;;;;;;4950903;28;20460;-69
2022/01/26 20:19:02;;;;;;;8.63;4.47;;;;;;;;;;4968874;28;20449;-70
2022/01/26 20:21:28;;;;;;;11.38;4.55;;;;;;;;;;4951414;28;20325;-69
2022/01/26 20:23:53;;;;;;;8.88;4.25;;;;;;;;;;4969752;28;20029;-69
2022/01/26 20:26:18;;;;;;;8.77;3.92;;;;;;;;;;4968919;28;20421;-69
2022/01/26 20:28:45;;;;;;;10.15;4.22;;;;;;;;;;4968492;28;20475;-69
2022/01/26 20:31:18;;;;;;;10.82;4.93;;;;;;;;;;4970579;28;20426;-70
2022/01/26 20:33:44;;;;;;;12.00;4.63;;;;;;;;;;4955244;28;20448;-70
2022/01/26 20:36:10;;;;;;;10.82;4.78;;;;;;;;;;4954459;28;20407;-69
2022/01/26 20:38:35;;;;;;;10.40;4.88;;;;;;;;;;4973546;28;20331;-69
2022/01/26 20:41:00;;;;;;;8.65;3.92;;;;;;;;;;4971835;28;20340;-69
2022/01/26 20:43:26;;;;;;;8.32;4.50;;;;;;;;;;4972655;28;20445;-69
2022/01/26 20:45:51;;;;;;;7.95;3.90;;;;;;;;;;4972697;28;20305;-69
2022/01/26 20:48:16;;;;;;;12.55;5.30;;;;;;;;;;4954143;28;20503;-69
2022/01/26 20:50:42;;;;;;;8.65;4.20;;;;;;;;;;4972184;28;20060;-69
2022/01/26 20:53:08;;;;;;;8.95;4.60;;;;;;;;;;4971985;28;20060;-70
2022/01/26 20:55:33;;;;;;;12.50;4.50;;;;;;;;;;4953916;28;20344;-70
2022/01/26 20:58:00;;;;;;;8.25;4.30;;;;;;;;;;4971766;28;20076;-69
2022/01/26 21:00:26;;;;;;;9.02;4.05;;;;;;;;;;4954940;28;20451;-70
2022/01/26 21:02:53;;;;;;;10.48;4.88;;;;;;;;;;4971568;28;20575;-70
2022/01/26 21:05:23;;;;;;;9.05;4.10;;;;;;;;;;4972127;28;20442;-69
2022/01/26 21:07:49;;;;;;;7.15;4.40;;;;;;;;;;4949875;28;20109;-69
2022/01/26 21:10:16;;;;;;;11.13;4.13;;;;;;;;;;4934220;28;20337;-69
2022/01/26 21:12:41;;;;;;;9.32;4.43;;;;;;;;;;4951796;28;20029;-69
2022/01/26 21:15:08;;;;;;;10.40;3.47;;;;;;;;;;4950300;28;20096;-69
2022/01/26 21:17:34;;;;;;;9.50;4.05;;;;;;;;;;4950380;28;20431;-69
2022/01/26 21:19:59;;;;;;;10.57;4.63;;;;;;;;;;4950467;28;20339;-69
2022/01/26 21:22:25;;;;;;;9.15;4.22;;;;;;;;;;4951516;28;20534;-69
2022/01/26 21:24:50;;;;;;;8.27;3.97;;;;;;;;;;4951880;28;20497;-69